sensor_id;sensor_type;location;lat;lon;timestamp;pressure;altitude;pressure_sealevel;temperature;humidity
3102;BME280;1561;42.666;23.392;2022-10-16T00:00:10;95866.78;;;9.53;100.00
3102;BME280;1561;42.666;23.392;2022-10-16T00:02:40;95866.88;;;9.39;100.00
3102;BME280;1561;42.666;23.392;2022-10-16T00:05:07;95855.25;;;9.22;100.00
3102;BME280;1561;42.666;23.392;2022-10-16T00:07:34;95869.38;;;9.13;100.00
3102;BME280;1561;42.666;23.392;2022-10-16T00:10:01;95875.50;;;9.11;100.00
3102;BME280;1561;42.666;23.392;2022-10-16T00:12:29;95839.78;;;8.98;100.00
3102;BME280;1561;42.666;23.392;2022-10-16T00:15:00;95857.50;;;9.39;100.00
3102;BME280;1561;42.666;23.392;2022-10-16T00:17:37;95872.72;;;9.53;100.00
3102;BME280;1561;42.666;23.392;2022-10-16T00:20:06;95875.94;;;9.30;100.00
3102;BME280;1561;42.666;23.392;2022-10-16T00:22:33;95868.91;;;9.21;100.00
3102;BME280;1561;42.666;23.392;2022-10-16T00:25:00;95865.19;;;9.13;100.00
3102;BME280;1561;42.666;23.392;2022-10-16T00:27:27;95874.09;;;9.20;100.00
3102;BME280;1561;42.666;23.392;2022-10-16T00:29:59;95876.31;;;9.12;100.00
3102;BME280;1561;42.666;23.392;2022-10-16T00:32:30;95894.84;;;9.01;100.00
3102;BME280;1561;42.666;23.392;2022-10-16T00:34:57;95881.84;;;8.91;100.00
3102;BME280;1561;42.666;23.392;2022-10-16T00:37:24;95894.50;;;8.93;100.00
3102;BME280;1561;42.666;23.392;2022-10-16T00:39:50;95896.69;;;8.99;100.00
3102;BME280;1561;42.666;23.392;2022-10-16T00:42:18;95898.75;;;8.80;100.00
3102;BME280;1561;42.666;23.392;2022-10-16T00:44:48;95891.31;;;8.63;100.00
3102;BME280;1561;42.666;23.392;2022-10-16T00:47:22;95886.44;;;8.60;100.00
3102;BME280;1561;42.666;23.392;2022-10-16T00:49:51;95875.63;;;8.56;100.00
3102;BME280;1561;42.666;23.392;2022-10-16T00:52:22;95887.47;;;8.57;100.00
3102;BME280;1561;42.666;23.392;2022-10-16T00:54:51;95885.56;;;8.47;100.00
3102;BME280;1561;42.666;23.392;2022-10-16T00:57:19;95889.78;;;8.34;100.00
3102;BME280;1561;42.666;23.392;2022-10-16T00:59:48;95898.97;;;8.36;100.00
3102;BME280;1561;42.666;23.392;2022-10-16T01:02:18;95874.69;;;8.17;100.00
3102;BME280;1561;42.666;23.392;2022-10-16T01:04:48;95894.59;;;8.24;100.00
3102;BME280;1561;42.666;23.392;2022-10-16T01:07:24;95904.88;;;8.37;100.00
3102;BME280;1561;42.666;23.392;2022-10-16T01:10:04;95904.97;;;8.35;100.00
3102;BME280;1561;42.666;23.392;2022-10-16T01:12:39;95907.31;;;8.24;100.00
3102;BME280;1561;42.666;23.392;2022-10-16T01:15:13;95906.72;;;8.21;100.00
3102;BME280;1561;42.666;23.392;2022-10-16T01:17:57;95889.03;;;8.46;100.00
3102;BME280;1561;42.666;23.392;2022-10-16T01:20:33;95899.94;;;8.48;100.00
3102;BME280;1561;42.666;23.392;2022-10-16T01:23:15;95890.72;;;8.59;100.00
3102;BME280;1561;42.666;23.392;2022-10-16T01:26:12;95901.09;;;8.83;100.00
3102;BME280;1561;42.666;23.392;2022-10-16T01:28:45;95870.63;;;8.81;100.00
3102;BME280;1561;42.666;23.392;2022-10-16T01:31:19;95862.66;;;8.73;100.00
3102;BME280;1561;42.666;23.392;2022-10-16T01:33:56;95860.78;;;8.63;100.00
3102;BME280;1561;42.666;23.392;2022-10-16T01:36:28;95882.06;;;8.62;100.00
3102;BME280;1561;42.666;23.392;2022-10-16T01:39:00;95879.59;;;8.74;100.00
3102;BME280;1561;42.666;23.392;2022-10-16T01:41:33;95858.72;;;8.55;100.00
3102;BME280;1561;42.666;23.392;2022-10-16T01:44:05;95884.91;;;8.57;100.00
3102;BME280;1561;42.666;23.392;2022-10-16T01:46:41;95886.63;;;8.57;100.00
3102;BME280;1561;42.666;23.392;2022-10-16T01:49:14;95886.09;;;8.52;100.00
3102;BME280;1561;42.666;23.392;2022-10-16T01:51:47;95894.34;;;8.55;100.00
3102;BME280;1561;42.666;23.392;2022-10-16T01:54:16;95905.03;;;8.48;100.00
3102;BME280;1561;42.666;23.392;2022-10-16T01:56:46;95893.13;;;8.34;100.00
3102;BME280;1561;42.666;23.392;2022-10-16T01:59:20;95876.06;;;8.22;100.00
3102;BME280;1561;42.666;23.392;2022-10-16T02:01:51;95897.34;;;8.21;100.00
3102;BME280;1561;42.666;23.392;2022-10-16T02:04:23;95898.84;;;8.10;100.00
3102;BME280;1561;42.666;23.392;2022-10-16T02:06:54;95900.84;;;8.05;100.00
3102;BME280;1561;42.666;23.392;2022-10-16T02:09:27;95919.94;;;8.12;100.00
3102;BME280;1561;42.666;23.392;2022-10-16T02:11:55;95906.59;;;8.08;100.00
3102;BME280;1561;42.666;23.392;2022-10-16T02:14:25;95913.41;;;8.08;100.00
3102;BME280;1561;42.666;23.392;2022-10-16T02:16:54;95921.59;;;7.85;100.00
3102;BME280;1561;42.666;23.392;2022-10-16T02:19:22;95924.59;;;7.91;100.00
3102;BME280;1561;42.666;23.392;2022-10-16T02:21:54;95922.22;;;7.88;100.00
3102;BME280;1561;42.666;23.392;2022-10-16T02:24:31;95920.41;;;8.04;100.00
3102;BME280;1561;42.666;23.392;2022-10-16T02:27:05;95914.25;;;8.22;100.00
3102;BME280;1561;42.666;23.392;2022-10-16T02:29:40;95923.22;;;8.28;100.00
3102;BME280;1561;42.666;23.392;2022-10-16T02:32:13;95929.59;;;7.93;100.00
3102;BME280;1561;42.666;23.392;2022-10-16T02:34:46;95912.13;;;7.73;100.00
3102;BME280;1561;42.666;23.392;2022-10-16T02:37:15;95935.66;;;7.90;100.00
3102;BME280;1561;42.666;23.392;2022-10-16T02:39:48;95925.38;;;7.78;100.00
3102;BME280;1561;42.666;23.392;2022-10-16T02:42:17;95928.56;;;7.81;100.00
3102;BME280;1561;42.666;23.392;2022-10-16T02:44:48;95932.22;;;7.77;100.00
3102;BME280;1561;42.666;23.392;2022-10-16T02:47:15;95947.00;;;7.71;100.00
3102;BME280;1561;42.666;23.392;2022-10-16T02:49:42;95941.34;;;7.66;100.00
3102;BME280;1561;42.666;23.392;2022-10-16T02:52:09;95935.00;;;7.73;100.00
3102;BME280;1561;42.666;23.392;2022-10-16T02:54:46;95932.53;;;7.57;100.00
3102;BME280;1561;42.666;23.392;2022-10-16T02:57:14;95938.25;;;7.61;100.00
3102;BME280;1561;42.666;23.392;2022-10-16T02:59:41;95919.28;;;7.52;100.00
3102;BME280;1561;42.666;23.392;2022-10-16T03:02:12;95855.53;;;6.98;100.00
3102;BME280;1561;42.666;23.392;2022-10-16T03:04:46;95840.28;;;6.68;100.00
3102;BME280;1561;42.666;23.392;2022-10-16T03:07:14;95946.78;;;7.46;100.00
3102;BME280;1561;42.666;23.392;2022-10-16T03:09:41;95950.47;;;7.40;100.00
3102;BME280;1561;42.666;23.392;2022-10-16T03:12:08;95941.75;;;7.30;100.00
3102;BME280;1561;42.666;23.392;2022-10-16T03:14:37;95953.22;;;7.22;100.00
3102;BME280;1561;42.666;23.392;2022-10-16T03:17:05;95950.31;;;7.14;100.00
3102;BME280;1561;42.666;23.392;2022-10-16T03:19:36;95950.97;;;7.02;100.00
3102;BME280;1561;42.666;23.392;2022-10-16T03:22:03;95949.81;;;7.07;100.00
3102;BME280;1561;42.666;23.392;2022-10-16T03:24:30;95834.22;;;6.41;100.00
3102;BME280;1561;42.666;23.392;2022-10-16T03:26:57;95939.91;;;7.03;100.00
3102;BME280;1561;42.666;23.392;2022-10-16T03:29:26;95950.34;;;6.98;100.00
3102;BME280;1561;42.666;23.392;2022-10-16T03:31:56;95852.19;;;6.37;100.00
3102;BME280;1561;42.666;23.392;2022-10-16T03:34:25;95959.94;;;6.93;100.00
3102;BME280;1561;42.666;23.392;2022-10-16T03:36:56;95960.38;;;7.00;100.00
3102;BME280;1561;42.666;23.392;2022-10-16T03:39:23;95960.50;;;6.98;100.00
3102;BME280;1561;42.666;23.392;2022-10-16T03:41:50;95958.56;;;7.17;100.00
3102;BME280;1561;42.666;23.392;2022-10-16T03:44:17;95945.13;;;7.15;100.00
3102;BME280;1561;42.666;23.392;2022-10-16T03:46:44;95954.53;;;7.29;100.00
3102;BME280;1561;42.666;23.392;2022-10-16T03:49:11;95924.16;;;7.12;100.00
3102;BME280;1561;42.666;23.392;2022-10-16T03:51:40;95951.81;;;7.32;100.00
3102;BME280;1561;42.666;23.392;2022-10-16T03:54:09;95957.53;;;7.35;100.00
3102;BME280;1561;42.666;23.392;2022-10-16T03:56:38;95953.63;;;7.30;100.00
3102;BME280;1561;42.666;23.392;2022-10-16T03:59:09;95955.38;;;7.43;100.00
3102;BME280;1561;42.666;23.392;2022-10-16T04:01:37;95948.44;;;7.31;100.00
3102;BME280;1561;42.666;23.392;2022-10-16T04:04:07;95951.22;;;7.42;100.00
3102;BME280;1561;42.666;23.392;2022-10-16T04:06:34;95958.44;;;7.34;100.00
3102;BME280;1561;42.666;23.392;2022-10-16T04:09:01;95957.69;;;7.32;100.00
3102;BME280;1561;42.666;23.392;2022-10-16T04:11:31;95955.38;;;7.14;100.00
3102;BME280;1561;42.666;23.392;2022-10-16T04:13:58;95957.19;;;7.12;100.00
3102;BME280;1561;42.666;23.392;2022-10-16T04:16:26;95953.22;;;7.22;100.00
3102;BME280;1561;42.666;23.392;2022-10-16T04:18:55;95938.34;;;7.00;100.00
3102;BME280;1561;42.666;23.392;2022-10-16T04:21:22;95957.47;;;6.92;100.00
3102;BME280;1561;42.666;23.392;2022-10-16T04:23:50;95959.53;;;6.85;100.00
3102;BME280;1561;42.666;23.392;2022-10-16T04:26:17;95967.56;;;6.93;100.00
3102;BME280;1561;42.666;23.392;2022-10-16T04:28:45;95962.50;;;7.23;100.00
3102;BME280;1561;42.666;23.392;2022-10-16T04:31:14;95954.31;;;7.18;100.00
3102;BME280;1561;42.666;23.392;2022-10-16T04:33:45;95957.97;;;7.28;100.00
3102;BME280;1561;42.666;23.392;2022-10-16T04:36:13;95960.59;;;7.26;100.00
3102;BME280;1561;42.666;23.392;2022-10-16T04:38:40;95966.03;;;7.20;100.00
3102;BME280;1561;42.666;23.392;2022-10-16T04:41:08;95967.03;;;7.18;100.00
3102;BME280;1561;42.666;23.392;2022-10-16T04:43:35;95976.69;;;7.11;100.00
3102;BME280;1561;42.666;23.392;2022-10-16T04:46:04;95969.59;;;7.02;100.00
3102;BME280;1561;42.666;23.392;2022-10-16T04:48:32;95976.94;;;7.07;100.00
3102;BME280;1561;42.666;23.392;2022-10-16T04:51:00;95986.41;;;7.34;100.00
3102;BME280;1561;42.666;23.392;2022-10-16T04:53:28;95972.53;;;7.69;100.00
3102;BME280;1561;42.666;23.392;2022-10-16T04:55:56;95983.66;;;8.10;100.00
3102;BME280;1561;42.666;23.392;2022-10-16T04:58:28;95981.03;;;8.68;100.00
3102;BME280;1561;42.666;23.392;2022-10-16T05:00:55;95983.63;;;9.07;100.00
3102;BME280;1561;42.666;23.392;2022-10-16T05:03:27;95968.25;;;9.35;100.00
3102;BME280;1561;42.666;23.392;2022-10-16T05:05:57;95988.50;;;10.15;100.00
3102;BME280;1561;42.666;23.392;2022-10-16T05:08:28;95981.59;;;11.25;100.00
3102;BME280;1561;42.666;23.392;2022-10-16T05:10:57;95987.28;;;11.17;100.00
3102;BME280;1561;42.666;23.392;2022-10-16T05:13:25;95998.38;;;11.76;100.00
3102;BME280;1561;42.666;23.392;2022-10-16T05:15:52;95993.94;;;11.67;100.00
3102;BME280;1561;42.666;23.392;2022-10-16T05:18:20;95993.84;;;12.58;100.00
3102;BME280;1561;42.666;23.392;2022-10-16T05:20:53;95988.88;;;11.89;100.00
3102;BME280;1561;42.666;23.392;2022-10-16T05:23:20;96009.72;;;11.95;100.00
3102;BME280;1561;42.666;23.392;2022-10-16T05:25:52;95990.69;;;12.65;100.00
3102;BME280;1561;42.666;23.392;2022-10-16T05:28:20;95995.38;;;13.36;100.00
3102;BME280;1561;42.666;23.392;2022-10-16T05:30:48;95926.66;;;13.39;100.00
3102;BME280;1561;42.666;23.392;2022-10-16T05:33:15;95989.88;;;13.92;100.00
3102;BME280;1561;42.666;23.392;2022-10-16T05:35:42;95978.63;;;14.85;100.00
3102;BME280;1561;42.666;23.392;2022-10-16T05:38:14;95997.97;;;14.08;100.00
3102;BME280;1561;42.666;23.392;2022-10-16T05:40:41;95992.63;;;14.62;100.00
3102;BME280;1561;42.666;23.392;2022-10-16T05:43:08;96001.03;;;14.64;100.00
3102;BME280;1561;42.666;23.392;2022-10-16T05:45:35;95993.53;;;16.06;100.00
3102;BME280;1561;42.666;23.392;2022-10-16T05:48:04;95997.28;;;15.26;100.00
3102;BME280;1561;42.666;23.392;2022-10-16T05:50:35;95998.31;;;15.05;100.00
3102;BME280;1561;42.666;23.392;2022-10-16T05:53:05;95998.03;;;15.57;100.00
3102;BME280;1561;42.666;23.392;2022-10-16T05:55:40;96006.50;;;14.80;100.00
3102;BME280;1561;42.666;23.392;2022-10-16T05:58:09;96013.53;;;15.27;100.00
3102;BME280;1561;42.666;23.392;2022-10-16T06:00:52;95924.97;;;15.48;97.91
3102;BME280;1561;42.666;23.392;2022-10-16T06:03:20;96016.91;;;16.70;88.58
3102;BME280;1561;42.666;23.392;2022-10-16T06:05:51;96020.75;;;17.20;82.44
3102;BME280;1561;42.666;23.392;2022-10-16T06:08:25;95954.50;;;17.11;84.88
3102;BME280;1561;42.666;23.392;2022-10-16T06:11:09;96031.78;;;17.84;80.66
3102;BME280;1561;42.666;23.392;2022-10-16T06:13:39;96022.03;;;16.80;83.30
3102;BME280;1561;42.666;23.392;2022-10-16T06:16:10;96016.06;;;15.85;96.17
3102;BME280;1561;42.666;23.392;2022-10-16T06:18:38;96022.75;;;16.99;85.61
3102;BME280;1561;42.666;23.392;2022-10-16T06:21:08;96025.41;;;17.44;82.03
3102;BME280;1561;42.666;23.392;2022-10-16T06:23:42;96038.47;;;17.33;81.32
3102;BME280;1561;42.666;23.392;2022-10-16T06:26:15;96043.22;;;18.17;76.57
3102;BME280;1561;42.666;23.392;2022-10-16T06:28:43;96023.72;;;17.25;82.37
3102;BME280;1561;42.666;23.392;2022-10-16T06:31:11;96036.72;;;20.22;65.23
3102;BME280;1561;42.666;23.392;2022-10-16T06:33:39;96045.16;;;19.50;65.05
3102;BME280;1561;42.666;23.392;2022-10-16T06:36:08;96040.44;;;21.22;57.52
3102;BME280;1561;42.666;23.392;2022-10-16T06:38:37;96044.84;;;18.35;68.59
3102;BME280;1561;42.666;23.392;2022-10-16T06:41:07;96054.16;;;18.71;67.44
3102;BME280;1561;42.666;23.392;2022-10-16T06:43:37;96049.66;;;17.78;73.89
3102;BME280;1561;42.666;23.392;2022-10-16T06:46:05;96050.53;;;18.39;71.94
3102;BME280;1561;42.666;23.392;2022-10-16T06:48:35;96056.59;;;19.24;66.06
3102;BME280;1561;42.666;23.392;2022-10-16T06:51:04;96059.88;;;17.52;75.20
3102;BME280;1561;42.666;23.392;2022-10-16T06:53:35;96071.09;;;18.23;74.12
3102;BME280;1561;42.666;23.392;2022-10-16T06:56:07;96051.44;;;19.06;67.94
3102;BME280;1561;42.666;23.392;2022-10-16T06:58:38;96070.00;;;19.69;64.50
3102;BME280;1561;42.666;23.392;2022-10-16T07:01:07;96074.72;;;19.32;64.19
3102;BME280;1561;42.666;23.392;2022-10-16T07:03:37;96054.59;;;18.41;70.66
3102;BME280;1561;42.666;23.392;2022-10-16T07:06:07;96076.75;;;18.61;69.97
3102;BME280;1561;42.666;23.392;2022-10-16T07:08:36;96069.63;;;19.14;70.10
3102;BME280;1561;42.666;23.392;2022-10-16T07:11:06;96080.91;;;17.30;81.94
3102;BME280;1561;42.666;23.392;2022-10-16T07:13:34;96071.75;;;18.07;79.87
3102;BME280;1561;42.666;23.392;2022-10-16T07:16:06;96077.06;;;18.06;80.37
3102;BME280;1561;42.666;23.392;2022-10-16T07:18:33;96077.94;;;18.49;78.13
3102;BME280;1561;42.666;23.392;2022-10-16T07:21:05;96077.84;;;19.35;74.80
3102;BME280;1561;42.666;23.392;2022-10-16T07:23:34;96072.72;;;20.65;63.32
3102;BME280;1561;42.666;23.392;2022-10-16T07:26:02;96082.78;;;20.36;63.00
3102;BME280;1561;42.666;23.392;2022-10-16T07:28:30;96079.81;;;18.82;72.64
3102;BME280;1561;42.666;23.392;2022-10-16T07:31:00;96067.94;;;19.88;68.68
3102;BME280;1561;42.666;23.392;2022-10-16T07:33:34;96086.34;;;20.51;65.85
3102;BME280;1561;42.666;23.392;2022-10-16T07:36:01;96085.66;;;21.05;60.28
3102;BME280;1561;42.666;23.392;2022-10-16T07:38:29;96055.38;;;19.52;66.85
3102;BME280;1561;42.666;23.392;2022-10-16T07:41:00;96078.75;;;17.97;81.16
3102;BME280;1561;42.666;23.392;2022-10-16T07:43:28;96073.28;;;19.87;67.32
3102;BME280;1561;42.666;23.392;2022-10-16T07:46:00;96090.28;;;19.81;64.20
3102;BME280;1561;42.666;23.392;2022-10-16T07:48:29;96089.59;;;20.53;63.05
3102;BME280;1561;42.666;23.392;2022-10-16T07:51:03;96089.53;;;19.39;68.26
3102;BME280;1561;42.666;23.392;2022-10-16T07:53:30;96084.41;;;21.78;57.92
3102;BME280;1561;42.666;23.392;2022-10-16T07:55:58;96073.56;;;21.74;54.38
3102;BME280;1561;42.666;23.392;2022-10-16T07:58:28;96090.78;;;19.85;63.02
3102;BME280;1561;42.666;23.392;2022-10-16T08:00:58;96088.91;;;21.07;59.49
3102;BME280;1561;42.666;23.392;2022-10-16T08:03:25;96090.94;;;21.27;57.80
3102;BME280;1561;42.666;23.392;2022-10-16T08:05:52;96085.53;;;22.73;50.70
3102;BME280;1561;42.666;23.392;2022-10-16T08:08:23;96088.88;;;22.22;49.58
3102;BME280;1561;42.666;23.392;2022-10-16T08:10:51;96088.81;;;22.53;50.05
3102;BME280;1561;42.666;23.392;2022-10-16T08:13:19;96086.16;;;22.61;49.62
3102;BME280;1561;42.666;23.392;2022-10-16T08:15:46;96061.97;;;22.30;50.79
3102;BME280;1561;42.666;23.392;2022-10-16T08:18:15;96090.78;;;22.28;52.20
3102;BME280;1561;42.666;23.392;2022-10-16T08:20:55;96078.56;;;22.74;50.44
3102;BME280;1561;42.666;23.392;2022-10-16T08:23:28;96081.03;;;22.45;50.31
3102;BME280;1561;42.666;23.392;2022-10-16T08:26:04;96075.78;;;23.63;47.33
3102;BME280;1561;42.666;23.392;2022-10-16T08:28:37;96072.63;;;24.59;45.04
3102;BME280;1561;42.666;23.392;2022-10-16T08:31:10;96075.53;;;22.99;48.04
3102;BME280;1561;42.666;23.392;2022-10-16T08:33:43;96065.56;;;21.37;51.29
3102;BME280;1561;42.666;23.392;2022-10-16T08:36:12;96084.22;;;22.77;49.25
3102;BME280;1561;42.666;23.392;2022-10-16T08:38:43;96067.03;;;24.62;44.27
3102;BME280;1561;42.666;23.392;2022-10-16T08:44:16;96066.50;;;23.25;45.86
3102;BME280;1561;42.666;23.392;2022-10-16T08:46:54;96071.88;;;24.02;44.25
3102;BME280;1561;42.666;23.392;2022-10-16T08:49:29;96077.03;;;23.96;43.11
3102;BME280;1561;42.666;23.392;2022-10-16T08:51:57;96061.28;;;24.52;40.49
3102;BME280;1561;42.666;23.392;2022-10-16T08:54:29;96072.00;;;23.65;41.41
3102;BME280;1561;42.666;23.392;2022-10-16T08:57:17;96060.97;;;23.05;41.72
3102;BME280;1561;42.666;23.392;2022-10-16T08:59:45;96089.00;;;23.17;42.86
3102;BME280;1561;42.666;23.392;2022-10-16T09:02:23;96090.72;;;22.96;43.27
3102;BME280;1561;42.666;23.392;2022-10-16T09:05:02;96086.63;;;23.60;41.68
3102;BME280;1561;42.666;23.392;2022-10-16T09:07:40;96081.28;;;22.58;42.56
3102;BME280;1561;42.666;23.392;2022-10-16T09:10:26;96067.41;;;22.80;42.35
3102;BME280;1561;42.666;23.392;2022-10-16T09:13:12;96063.97;;;23.96;39.80
3102;BME280;1561;42.666;23.392;2022-10-16T09:15:47;96069.19;;;24.38;39.65
3102;BME280;1561;42.666;23.392;2022-10-16T09:18:22;96077.31;;;23.13;41.49
3102;BME280;1561;42.666;23.392;2022-10-16T09:20:53;96079.47;;;23.97;39.68
3102;BME280;1561;42.666;23.392;2022-10-16T09:23:27;96075.19;;;22.51;41.65
3102;BME280;1561;42.666;23.392;2022-10-16T09:25:56;96080.53;;;22.86;41.97
3102;BME280;1561;42.666;23.392;2022-10-16T09:28:26;96076.06;;;24.18;40.23
3102;BME280;1561;42.666;23.392;2022-10-16T09:30:54;96071.38;;;24.55;39.38
3102;BME280;1561;42.666;23.392;2022-10-16T09:33:24;96071.72;;;22.73;41.63
3102;BME280;1561;42.666;23.392;2022-10-16T09:35:57;96060.38;;;23.97;40.54
3102;BME280;1561;42.666;23.392;2022-10-16T09:38:26;96066.50;;;23.39;40.62
3102;BME280;1561;42.666;23.392;2022-10-16T09:41:02;96070.22;;;23.66;40.25
3102;BME280;1561;42.666;23.392;2022-10-16T09:43:35;96066.69;;;22.71;40.92
3102;BME280;1561;42.666;23.392;2022-10-16T09:46:06;96057.84;;;24.45;38.88
3102;BME280;1561;42.666;23.392;2022-10-16T09:48:37;96030.66;;;24.61;38.08
3102;BME280;1561;42.666;23.392;2022-10-16T09:51:17;96048.06;;;22.37;42.04
3102;BME280;1561;42.666;23.392;2022-10-16T09:53:48;96050.56;;;22.53;40.47
3102;BME280;1561;42.666;23.392;2022-10-16T09:56:24;96052.19;;;23.21;39.83
3102;BME280;1561;42.666;23.392;2022-10-16T09:58:53;96057.19;;;22.93;39.06
3102;BME280;1561;42.666;23.392;2022-10-16T10:01:21;96031.56;;;22.45;40.26
3102;BME280;1561;42.666;23.392;2022-10-16T10:03:49;96050.00;;;23.68;38.20
3102;BME280;1561;42.666;23.392;2022-10-16T10:06:22;96038.66;;;24.38;36.65
3102;BME280;1561;42.666;23.392;2022-10-16T10:09:13;96046.88;;;23.93;37.01
3102;BME280;1561;42.666;23.392;2022-10-16T10:11:49;96039.56;;;23.68;37.36
3102;BME280;1561;42.666;23.392;2022-10-16T10:14:34;96025.63;;;24.17;38.13
3102;BME280;1561;42.666;23.392;2022-10-16T10:17:14;96022.63;;;23.99;38.68
3102;BME280;1561;42.666;23.392;2022-10-16T10:19:46;96033.19;;;22.83;39.68
3102;BME280;1561;42.666;23.392;2022-10-16T10:22:21;96026.16;;;22.69;39.21
3102;BME280;1561;42.666;23.392;2022-10-16T10:27:47;96030.06;;;23.46;38.11
3102;BME280;1561;42.666;23.392;2022-10-16T10:30:21;96025.19;;;24.14;37.43
3102;BME280;1561;42.666;23.392;2022-10-16T10:32:55;96029.78;;;22.23;38.86
3102;BME280;1561;42.666;23.392;2022-10-16T10:35:33;96006.47;;;22.29;39.26
3102;BME280;1561;42.666;23.392;2022-10-16T10:38:16;96017.00;;;24.17;36.48
3102;BME280;1561;42.666;23.392;2022-10-16T10:40:50;96012.91;;;24.35;36.15
3102;BME280;1561;42.666;23.392;2022-10-16T10:43:40;96012.00;;;23.30;37.25
3102;BME280;1561;42.666;23.392;2022-10-16T10:46:16;95940.56;;;23.87;36.60
3102;BME280;1561;42.666;23.392;2022-10-16T10:48:57;96007.66;;;22.93;35.32
3102;BME280;1561;42.666;23.392;2022-10-16T10:51:31;96011.03;;;22.50;35.88
3102;BME280;1561;42.666;23.392;2022-10-16T10:54:11;96004.31;;;21.96;36.88
3102;BME280;1561;42.666;23.392;2022-10-16T10:56:47;96007.13;;;23.41;34.79
3102;BME280;1561;42.666;23.392;2022-10-16T10:59:53;95997.78;;;24.03;33.64
3102;BME280;1561;42.666;23.392;2022-10-16T11:02:33;96003.69;;;22.31;36.78
3102;BME280;1561;42.666;23.392;2022-10-16T11:05:33;95994.84;;;23.92;35.03
3102;BME280;1561;42.666;23.392;2022-10-16T11:08:08;95994.81;;;23.35;35.77
3102;BME280;1561;42.666;23.392;2022-10-16T11:10:44;95990.19;;;24.08;34.30
3102;BME280;1561;42.666;23.392;2022-10-16T11:13:19;95987.91;;;23.99;35.30
3102;BME280;1561;42.666;23.392;2022-10-16T11:16:10;95968.91;;;23.04;36.38
3102;BME280;1561;42.666;23.392;2022-10-16T11:18:47;95987.91;;;23.13;36.57
3102;BME280;1561;42.666;23.392;2022-10-16T11:21:43;95973.16;;;24.61;35.42
3102;BME280;1561;42.666;23.392;2022-10-16T11:24:20;95978.53;;;23.69;36.32
3102;BME280;1561;42.666;23.392;2022-10-16T11:26:57;95986.50;;;22.44;38.01
3102;BME280;1561;42.666;23.392;2022-10-16T11:29:30;95965.41;;;22.54;37.94
3102;BME280;1561;42.666;23.392;2022-10-16T11:32:04;95981.31;;;21.85;39.44
3102;BME280;1561;42.666;23.392;2022-10-16T11:34:37;95980.00;;;23.06;37.25
3102;BME280;1561;42.666;23.392;2022-10-16T11:37:11;95978.22;;;22.92;37.70
3102;BME280;1561;42.666;23.392;2022-10-16T11:39:39;95979.81;;;22.93;37.93
3102;BME280;1561;42.666;23.392;2022-10-16T11:42:13;95967.97;;;22.91;38.07
3102;BME280;1561;42.666;23.392;2022-10-16T11:44:48;95984.84;;;22.66;39.34
3102;BME280;1561;42.666;23.392;2022-10-16T11:47:40;95976.13;;;22.22;39.90
3102;BME280;1561;42.666;23.392;2022-10-16T11:50:19;95978.69;;;21.85;40.50
3102;BME280;1561;42.666;23.392;2022-10-16T11:52:53;95980.47;;;22.44;40.01
3102;BME280;1561;42.666;23.392;2022-10-16T11:55:24;95981.34;;;21.77;40.54
3102;BME280;1561;42.666;23.392;2022-10-16T11:57:58;95976.78;;;22.01;40.37
3102;BME280;1561;42.666;23.392;2022-10-16T12:00:30;95986.84;;;21.21;41.49
3102;BME280;1561;42.666;23.392;2022-10-16T12:03:11;95984.47;;;21.42;40.41
3102;BME280;1561;42.666;23.392;2022-10-16T12:05:54;95980.25;;;20.48;43.14
3102;BME280;1561;42.666;23.392;2022-10-16T12:08:26;95978.31;;;20.02;45.08
3102;BME280;1561;42.666;23.392;2022-10-16T12:10:53;95966.97;;;20.19;44.78
3102;BME280;1561;42.666;23.392;2022-10-16T12:13:34;95889.44;;;20.24;43.20
3102;BME280;1561;42.666;23.392;2022-10-16T12:16:06;95981.91;;;20.17;42.52
3102;BME280;1561;42.666;23.392;2022-10-16T12:18:38;95983.66;;;19.92;42.65
3102;BME280;1561;42.666;23.392;2022-10-16T12:21:05;95975.53;;;20.35;43.11
3102;BME280;1561;42.666;23.392;2022-10-16T12:23:36;95979.47;;;20.23;44.39
3102;BME280;1561;42.666;23.392;2022-10-16T12:26:04;95965.19;;;20.11;45.15
3102;BME280;1561;42.666;23.392;2022-10-16T12:28:33;95982.03;;;19.75;45.69
3102;BME280;1561;42.666;23.392;2022-10-16T12:31:03;95974.91;;;19.93;45.90
3102;BME280;1561;42.666;23.392;2022-10-16T12:33:34;95967.13;;;19.85;45.72
3102;BME280;1561;42.666;23.392;2022-10-16T12:36:07;95972.13;;;20.03;45.28
3102;BME280;1561;42.666;23.392;2022-10-16T12:38:45;95984.56;;;19.51;46.43
3102;BME280;1561;42.666;23.392;2022-10-16T12:41:25;95967.75;;;19.14;46.53
3102;BME280;1561;42.666;23.392;2022-10-16T12:43:53;95973.56;;;19.65;46.67
3102;BME280;1561;42.666;23.392;2022-10-16T12:46:26;95973.41;;;19.51;47.27
3102;BME280;1561;42.666;23.392;2022-10-16T12:49:14;95982.53;;;19.21;47.37
3102;BME280;1561;42.666;23.392;2022-10-16T12:51:50;95974.31;;;19.26;47.99
3102;BME280;1561;42.666;23.392;2022-10-16T12:54:18;95983.66;;;20.00;46.48
3102;BME280;1561;42.666;23.392;2022-10-16T12:56:53;95875.88;;;19.42;45.61
3102;BME280;1561;42.666;23.392;2022-10-16T12:59:34;95988.00;;;19.60;45.81
3102;BME280;1561;42.666;23.392;2022-10-16T13:02:29;95989.16;;;19.81;44.51
3102;BME280;1561;42.666;23.392;2022-10-16T13:05:14;95915.66;;;19.17;44.95
3102;BME280;1561;42.666;23.392;2022-10-16T13:07:53;95988.13;;;19.42;45.43
3102;BME280;1561;42.666;23.392;2022-10-16T13:10:28;95971.09;;;19.32;46.36
3102;BME280;1561;42.666;23.392;2022-10-16T13:13:18;95993.03;;;19.77;44.51
3102;BME280;1561;42.666;23.392;2022-10-16T13:15:57;95986.06;;;19.62;45.77
3102;BME280;1561;42.666;23.392;2022-10-16T13:18:34;95969.19;;;19.50;45.95
3102;BME280;1561;42.666;23.392;2022-10-16T13:21:19;95991.44;;;19.84;45.39
3102;BME280;1561;42.666;23.392;2022-10-16T13:23:59;95997.44;;;19.77;45.10
3102;BME280;1561;42.666;23.392;2022-10-16T13:26:40;95920.22;;;19.31;45.17
3102;BME280;1561;42.666;23.392;2022-10-16T13:29:10;95989.13;;;19.65;45.58
3102;BME280;1561;42.666;23.392;2022-10-16T13:31:38;95982.47;;;19.47;45.75
3102;BME280;1561;42.666;23.392;2022-10-16T13:34:12;95990.78;;;19.66;45.80
3102;BME280;1561;42.666;23.392;2022-10-16T13:36:53;95978.09;;;19.55;46.05
3102;BME280;1561;42.666;23.392;2022-10-16T13:39:24;95962.53;;;19.47;46.04
3102;BME280;1561;42.666;23.392;2022-10-16T13:42:05;96002.59;;;19.19;46.71